createdAt,value
2023-01-17T00:00:34.860Z,1.42
2023-01-17T00:03:01.776Z,1.10
2023-01-17T00:05:47.066Z,1.50
2023-01-17T00:08:32.483Z,1.50
2023-01-17T00:10:59.300Z,1.40
2023-01-17T00:13:25.997Z,1.50
2023-01-17T00:15:53.098Z,1.70
2023-01-17T00:18:19.854Z,1.30
2023-01-17T00:21:05.326Z,1.38
2023-01-17T00:23:50.567Z,1.23
2023-01-17T00:26:19.086Z,1.30
2023-01-17T00:28:47.840Z,1.30
2023-01-17T00:31:15.460Z,1.33
2023-01-17T00:33:42.317Z,1.13
2023-01-17T00:36:09.661Z,1.40
2023-01-17T00:38:38.041Z,1.30
2023-01-17T00:41:09.387Z,1.50
2023-01-17T00:43:55.235Z,1.48
2023-01-17T00:46:40.868Z,1.40
2023-01-17T00:49:26.313Z,1.73
2023-01-17T00:52:11.838Z,1.27
2023-01-17T00:54:57.445Z,1.45
2023-01-17T00:57:43.095Z,1.40
2023-01-17T01:00:29.025Z,1.80
2023-01-17T01:03:14.611Z,1.70
2023-01-17T01:05:59.899Z,1.70
2023-01-17T01:08:47.221Z,2.25
2023-01-17T01:11:35.265Z,2.15
2023-01-17T01:14:20.500Z,1.80
2023-01-17T01:17:05.746Z,1.55
2023-01-17T01:19:51.328Z,1.58
2023-01-17T01:22:36.817Z,1.60
2023-01-17T01:25:22.565Z,1.63
2023-01-17T01:28:08.241Z,1.55
2023-01-17T01:30:53.439Z,1.98
2023-01-17T01:33:20.163Z,1.55
2023-01-17T01:35:51.899Z,1.50
2023-01-17T01:38:20.216Z,1.45
2023-01-17T01:40:49.172Z,1.52
2023-01-17T01:43:18.341Z,1.77
2023-01-17T01:45:48.578Z,1.63
2023-01-17T01:48:20.495Z,1.65
2023-01-17T01:50:48.731Z,1.70
2023-01-17T01:53:16.001Z,1.38
2023-01-17T01:55:43.244Z,1.70
2023-01-17T01:58:24.381Z,1.70
2023-01-17T02:00:51.319Z,1.70
2023-01-17T02:03:22.167Z,1.40
2023-01-17T02:05:48.819Z,1.77
2023-01-17T02:08:17.631Z,1.90
2023-01-17T02:10:44.595Z,1.85
2023-01-17T02:13:13.016Z,1.95
2023-01-17T02:16:17.222Z,1.90
2023-01-17T02:18:53.879Z,1.75
2023-01-17T02:21:32.085Z,1.60
2023-01-17T02:24:17.323Z,1.65
2023-01-17T02:26:58.590Z,1.73
2023-01-17T02:29:46.626Z,1.80
2023-01-17T02:32:40.236Z,1.83
2023-01-17T02:35:28.219Z,1.65
2023-01-17T02:38:25.281Z,1.88
2023-01-17T02:41:07.699Z,2.00
2023-01-17T02:43:35.923Z,1.58
2023-01-17T02:46:02.835Z,1.60
2023-01-17T02:48:32.131Z,1.58
2023-01-17T02:51:10.585Z,1.85
2023-01-17T02:54:00.260Z,2.00
2023-01-17T02:57:10.739Z,1.52
2023-01-17T02:59:45.828Z,1.80
2023-01-17T03:02:38.351Z,1.48
2023-01-17T03:05:22.475Z,2.03
2023-01-17T03:07:50.502Z,1.83
2023-01-17T03:10:18.492Z,1.50
2023-01-17T03:12:45.311Z,1.63
2023-01-17T03:15:17.420Z,2.13
2023-01-17T03:17:49.942Z,2.10
2023-01-17T03:20:16.888Z,1.67
2023-01-17T03:22:43.535Z,2.28
2023-01-17T03:25:10.478Z,2.10
2023-01-17T03:27:37.181Z,1.77
2023-01-17T03:30:04.809Z,2.13
2023-01-17T03:32:31.508Z,2.83
2023-01-17T03:34:58.234Z,2.10
2023-01-17T03:37:24.956Z,2.10
2023-01-17T03:39:51.640Z,2.17
2023-01-17T03:42:18.389Z,2.08
2023-01-17T03:44:45.055Z,1.88
2023-01-17T03:47:12.282Z,2.17
2023-01-17T03:49:39.834Z,2.40
2023-01-17T03:52:07.176Z,2.00
2023-01-17T03:54:33.882Z,2.00
2023-01-17T03:57:00.695Z,2.05
2023-01-17T03:59:27.484Z,2.17
2023-01-17T04:01:54.227Z,2.15
2023-01-17T04:04:21.002Z,1.48
2023-01-17T04:06:48.073Z,1.50
2023-01-17T04:09:14.808Z,1.38
2023-01-17T04:11:41.531Z,1.58
2023-01-17T04:14:08.261Z,1.48
2023-01-17T04:16:35.465Z,1.50
2023-01-17T04:19:02.216Z,1.13
2023-01-17T04:21:28.850Z,1.50
2023-01-17T04:23:55.474Z,1.30
2023-01-17T04:26:22.137Z,1.10
2023-01-17T04:28:49.367Z,1.63
2023-01-17T04:31:17.017Z,1.33
2023-01-17T04:33:49.655Z,1.50
2023-01-17T04:36:16.319Z,1.60
2023-01-17T04:38:42.956Z,2.00
2023-01-17T04:41:09.726Z,1.00
2023-01-17T04:43:36.597Z,1.67
2023-01-17T04:46:04.965Z,1.50
2023-01-17T04:48:31.726Z,1.20
2023-01-17T04:51:02.502Z,1.40
2023-01-17T04:53:29.325Z,1.42
2023-01-17T04:55:56.027Z,1.35
2023-01-17T04:58:22.805Z,1.85
2023-01-17T05:00:51.047Z,1.70
2023-01-17T05:03:18.995Z,1.83
2023-01-17T05:05:46.032Z,2.00
2023-01-17T05:08:15.922Z,2.15
2023-01-17T05:10:42.612Z,1.83
2023-01-17T05:13:09.313Z,1.48
2023-01-17T05:15:36.362Z,2.67
2023-01-17T05:18:07.236Z,1.50
2023-01-17T05:20:34.900Z,2.90
2023-01-17T05:23:01.596Z,2.65
2023-01-17T05:25:29.884Z,2.58
2023-01-17T05:27:57.313Z,2.30
2023-01-17T05:30:24.003Z,2.50
2023-01-17T05:32:52.343Z,2.38
2023-01-17T05:35:20.538Z,2.20
2023-01-17T05:37:49.209Z,2.20
2023-01-17T05:40:16.738Z,1.95
2023-01-17T05:42:47.304Z,2.05
2023-01-17T05:45:16.895Z,1.88
2023-01-17T05:47:44.746Z,2.42
2023-01-17T05:50:12.950Z,3.10
2023-01-17T05:52:40.108Z,2.53
2023-01-17T05:55:07.490Z,2.30
2023-01-17T05:57:35.045Z,2.10
2023-01-17T06:00:01.871Z,1.90
2023-01-17T06:02:31.611Z,1.92
2023-01-17T06:04:58.279Z,1.73
2023-01-17T06:07:24.960Z,1.98
2023-01-17T06:09:51.704Z,1.95
2023-01-17T06:12:22.146Z,1.95
2023-01-17T06:14:48.860Z,1.70
2023-01-17T06:17:15.535Z,2.00
2023-01-17T06:19:42.208Z,1.70
2023-01-17T06:22:09.044Z,2.00
2023-01-17T06:24:35.817Z,1.67
2023-01-17T06:27:02.523Z,1.70
2023-01-17T06:29:29.217Z,1.63
2023-01-17T06:31:55.923Z,1.80
2023-01-17T06:34:22.655Z,1.55
2023-01-17T06:36:49.343Z,1.80
2023-01-17T06:39:16.007Z,1.45
2023-01-17T06:41:43.090Z,2.03
2023-01-17T06:44:10.107Z,1.73
2023-01-17T06:46:36.960Z,2.55
2023-01-17T06:49:03.716Z,1.70
2023-01-17T06:51:30.391Z,1.92
2023-01-17T06:53:57.196Z,1.77
2023-01-17T06:56:23.946Z,1.75
2023-01-17T06:58:51.384Z,1.73
2023-01-17T07:01:18.809Z,2.00
2023-01-17T07:03:45.585Z,1.50
2023-01-17T07:06:12.399Z,2.20
2023-01-17T07:08:39.047Z,1.52
2023-01-17T07:11:10.261Z,1.75
2023-01-17T07:13:38.100Z,1.60
2023-01-17T07:16:06.318Z,1.70
2023-01-17T07:18:34.065Z,2.10
2023-01-17T07:21:00.827Z,1.92
2023-01-17T07:23:27.507Z,2.45
2023-01-17T07:25:58.946Z,2.03
2023-01-17T07:28:26.971Z,2.35
2023-01-17T07:30:54.202Z,2.20
2023-01-17T07:33:21.158Z,2.35
2023-01-17T07:35:47.906Z,2.35
2023-01-17T07:38:16.793Z,2.75
2023-01-17T07:40:44.192Z,2.38
2023-01-17T07:43:14.218Z,2.72
2023-01-17T07:45:46.562Z,3.55
2023-01-17T07:48:13.360Z,3.10
2023-01-17T07:50:40.251Z,3.10
2023-01-17T07:53:06.927Z,3.50
2023-01-17T07:55:33.693Z,3.40
2023-01-17T07:58:02.782Z,3.90
2023-01-17T08:00:29.894Z,2.72
2023-01-17T08:03:01.095Z,3.65
2023-01-17T08:05:28.433Z,3.13
2023-01-17T08:07:55.102Z,3.70
2023-01-17T08:10:22.817Z,3.35
2023-01-17T08:12:50.191Z,5.03
2023-01-17T08:15:17.953Z,4.45
2023-01-17T08:17:48.374Z,4.65
2023-01-17T08:20:16.277Z,4.22
2023-01-17T08:22:43.049Z,4.35
2023-01-17T08:25:09.836Z,3.88
2023-01-17T08:27:36.622Z,4.35
2023-01-17T08:30:03.907Z,4.72
2023-01-17T08:32:30.738Z,4.72
2023-01-17T08:34:57.419Z,4.07
2023-01-17T08:37:24.395Z,5.43
2023-01-17T08:39:51.129Z,4.50
2023-01-17T08:42:17.833Z,4.88
2023-01-17T08:44:44.585Z,4.75
2023-01-17T08:47:11.300Z,5.78
2023-01-17T08:49:37.992Z,4.63
2023-01-17T08:52:07.367Z,5.82
2023-01-17T08:54:34.068Z,4.90
2023-01-17T08:57:03.261Z,5.15
2023-01-17T08:59:30.002Z,5.28
2023-01-17T09:01:58.232Z,6.05
2023-01-17T09:04:25.187Z,6.47
2023-01-17T09:06:51.969Z,6.60
2023-01-17T09:09:18.742Z,6.72
2023-01-17T09:11:45.627Z,5.55
2023-01-17T09:14:13.129Z,6.40
2023-01-17T09:16:39.921Z,5.45
2023-01-17T09:19:06.719Z,5.35
2023-01-17T09:21:33.526Z,6.00
2023-01-17T09:24:00.341Z,6.18
2023-01-17T09:26:29.428Z,6.07
2023-01-17T09:28:56.263Z,5.82
2023-01-17T09:31:24.461Z,6.18
2023-01-17T09:33:51.860Z,5.70
2023-01-17T09:36:18.780Z,6.60
2023-01-17T09:38:45.823Z,5.75
2023-01-17T09:41:21.990Z,6.13
2023-01-17T09:44:18.032Z,5.63
2023-01-17T09:46:46.493Z,6.63
2023-01-17T09:49:35.776Z,7.18
2023-01-17T09:52:03.630Z,8.13
2023-01-17T09:54:41.441Z,8.45
2023-01-17T09:57:54.228Z,8.32
2023-01-17T10:00:39.283Z,7.90
2023-01-17T10:03:39.945Z,5.07
2023-01-17T10:06:17.444Z,5.50
2023-01-17T10:08:50.138Z,6.47
2023-01-17T10:11:29.189Z,6.13
2023-01-17T10:14:32.985Z,5.28
2023-01-17T10:17:08.656Z,5.68
2023-01-17T10:20:04.328Z,6.50
2023-01-17T10:22:31.165Z,6.07
2023-01-17T10:25:33.622Z,6.60
2023-01-17T10:28:05.075Z,7.00
2023-01-17T10:31:00.898Z,6.85
2023-01-17T10:33:30.198Z,4.72
2023-01-17T10:35:59.140Z,5.38
2023-01-17T10:38:30.300Z,4.70
2023-01-17T10:41:00.116Z,4.95
2023-01-17T10:43:39.375Z,4.57
2023-01-17T10:46:12.523Z,4.93
2023-01-17T10:48:45.882Z,4.75
2023-01-17T10:51:35.140Z,5.38
2023-01-17T10:54:12.368Z,4.70
2023-01-17T10:56:40.677Z,5.78
2023-01-17T10:59:19.021Z,4.78
2023-01-17T11:01:45.971Z,5.40
2023-01-17T11:04:22.033Z,5.80
2023-01-17T11:07:20.378Z,6.70
2023-01-17T11:09:52.248Z,5.47
2023-01-17T11:12:29.280Z,6.30
2023-01-17T11:15:01.839Z,6.35
2023-01-17T11:17:29.390Z,6.43
2023-01-17T11:20:20.188Z,5.90
2023-01-17T11:23:02.738Z,6.68
2023-01-17T11:25:32.952Z,7.97
2023-01-17T11:28:25.996Z,7.18
2023-01-17T11:30:55.524Z,8.38
2023-01-17T11:33:53.859Z,7.32
2023-01-17T11:36:28.793Z,5.95
2023-01-17T11:38:58.849Z,5.78
2023-01-17T11:41:28.142Z,6.47
2023-01-17T11:43:57.513Z,6.80
2023-01-17T11:46:25.029Z,5.63
2023-01-17T11:48:59.635Z,6.55
2023-01-17T11:51:30.190Z,4.85
2023-01-17T11:54:08.854Z,5.85
2023-01-17T11:56:36.751Z,5.35
2023-01-17T11:59:21.688Z,5.00
2023-01-17T12:01:58.017Z,4.50
2023-01-17T12:04:31.720Z,4.57
2023-01-17T12:07:19.657Z,4.60
2023-01-17T12:09:49.032Z,2.90
2023-01-17T12:13:11.187Z,3.40
2023-01-17T12:15:55.924Z,2.88
2023-01-17T12:18:32.269Z,2.90
2023-01-17T12:21:10.541Z,2.60
2023-01-17T12:23:51.732Z,3.30
2023-01-17T12:26:37.115Z,3.03
2023-01-17T12:29:37.111Z,3.42
2023-01-17T12:32:12.462Z,4.07
2023-01-17T12:34:47.083Z,2.40
2023-01-17T12:37:24.511Z,3.13
2023-01-17T12:39:57.277Z,2.80
2023-01-17T12:42:33.180Z,2.83
2023-01-17T12:45:08.043Z,2.80
2023-01-17T12:47:38.810Z,2.97
2023-01-17T12:50:15.437Z,2.30
2023-01-17T12:52:44.760Z,2.88
2023-01-17T12:55:22.369Z,2.50
2023-01-17T12:57:57.082Z,2.53
2023-01-17T13:00:26.728Z,2.35
2023-01-17T13:02:58.934Z,2.28
2023-01-17T13:05:32.461Z,2.63
2023-01-17T13:08:06.827Z,2.42
2023-01-17T13:10:39.678Z,3.10
2023-01-17T13:13:20.068Z,2.20
2023-01-17T13:15:49.258Z,2.35
2023-01-17T13:18:22.804Z,3.20
2023-01-17T13:21:06.025Z,2.08
2023-01-17T13:23:59.037Z,3.45
2023-01-17T13:26:47.573Z,2.25
2023-01-17T13:29:32.550Z,2.45
2023-01-17T13:32:27.589Z,2.40
2023-01-17T13:35:22.983Z,1.65
2023-01-17T13:38:04.383Z,1.80
2023-01-17T13:40:34.904Z,2.08
2023-01-17T13:43:05.637Z,1.90
2023-01-17T13:45:36.982Z,2.00
2023-01-17T13:48:12.782Z,1.58
2023-01-17T13:50:50.892Z,1.75
2023-01-17T13:53:35.630Z,1.85
2023-01-17T13:56:12.573Z,1.55
2023-01-17T13:58:50.488Z,1.40
2023-01-17T14:01:23.518Z,1.20
2023-01-17T14:03:50.361Z,1.50
2023-01-17T14:06:35.825Z,1.40
2023-01-17T14:09:13.386Z,1.52
2023-01-17T14:11:52.071Z,1.80
2023-01-17T14:14:36.932Z,1.33
2023-01-17T14:17:44.957Z,1.60
2023-01-17T14:20:12.498Z,1.20
2023-01-17T14:22:41.616Z,1.75
2023-01-17T14:25:18.498Z,1.70
2023-01-17T14:27:48.300Z,1.13
2023-01-17T14:30:18.038Z,2.60
2023-01-17T14:33:05.900Z,27.80
2023-01-17T14:35:36.864Z,2.10
2023-01-17T14:38:18.773Z,1.45
2023-01-17T14:40:51.149Z,1.98
2023-01-17T14:43:25.891Z,3.27
2023-01-17T14:46:00.480Z,2.30
2023-01-17T14:48:28.295Z,1.80
2023-01-17T14:50:57.400Z,1.60
2023-01-17T14:53:29.006Z,2.35
2023-01-17T14:56:01.675Z,2.10
2023-01-17T14:58:30.776Z,1.92
2023-01-17T15:01:00.324Z,2.08
2023-01-17T15:03:28.066Z,2.45
2023-01-17T15:05:55.541Z,2.70
2023-01-17T15:08:24.988Z,2.17
2023-01-17T15:10:58.612Z,1.88
2023-01-17T15:13:43.862Z,2.75
2023-01-17T15:16:29.639Z,3.53
2023-01-17T15:18:57.297Z,2.20
2023-01-17T15:21:29.876Z,2.92
2023-01-17T15:23:58.286Z,2.78
2023-01-17T15:26:27.332Z,2.85
2023-01-17T15:29:04.626Z,3.00
2023-01-17T15:31:41.342Z,2.83
2023-01-17T15:34:13.909Z,3.47
2023-01-17T15:36:40.797Z,2.63
2023-01-17T15:39:22.183Z,3.38
2023-01-17T15:41:52.141Z,3.17
2023-01-17T15:44:23.713Z,3.05
2023-01-17T15:46:50.499Z,3.40
2023-01-17T15:49:22.405Z,3.15
2023-01-17T15:51:53.304Z,2.38
2023-01-17T15:54:34.574Z,3.03
2023-01-17T15:57:05.346Z,3.40
2023-01-17T15:59:43.486Z,2.92
2023-01-17T16:02:32.805Z,4.13
2023-01-17T16:05:01.415Z,2.78
2023-01-17T16:07:35.611Z,3.38
2023-01-17T16:10:08.063Z,3.22
2023-01-17T16:12:34.750Z,3.40
2023-01-17T16:15:12.477Z,4.28
2023-01-17T16:17:42.271Z,5.85
2023-01-17T16:20:15.762Z,2.92
2023-01-17T16:22:43.820Z,3.85
2023-01-17T16:25:21.812Z,3.40
2023-01-17T16:27:49.447Z,4.63
2023-01-17T16:30:18.543Z,3.55
2023-01-17T16:32:49.565Z,3.55
2023-01-17T16:35:21.173Z,4.32
2023-01-17T16:37:55.903Z,3.22
2023-01-17T16:40:25.292Z,3.47
2023-01-17T16:42:52.078Z,4.38
2023-01-17T16:45:19.023Z,3.67
2023-01-17T16:47:47.328Z,3.53
2023-01-17T16:50:16.380Z,2.88
2023-01-17T16:52:43.122Z,4.13
2023-01-17T16:55:15.495Z,3.15
2023-01-17T16:57:42.511Z,3.40
2023-01-17T17:00:11.951Z,3.13
2023-01-17T17:02:39.469Z,3.70
2023-01-17T17:05:07.481Z,3.63
2023-01-17T17:07:36.677Z,3.80
2023-01-17T17:10:03.728Z,3.60
2023-01-17T17:12:31.942Z,3.35
2023-01-17T17:14:58.686Z,3.53
2023-01-17T17:17:25.446Z,4.00
2023-01-17T17:19:52.140Z,3.60
2023-01-17T17:22:18.823Z,3.75
2023-01-17T17:24:45.499Z,4.35
2023-01-17T17:27:12.349Z,4.50
2023-01-17T17:29:41.552Z,4.10
2023-01-17T17:32:11.432Z,5.13
2023-01-17T17:34:38.589Z,3.92
2023-01-17T17:37:05.269Z,4.85
2023-01-17T17:39:32.141Z,5.00
2023-01-17T17:41:58.886Z,4.20
2023-01-17T17:44:25.668Z,4.68
2023-01-17T17:46:52.373Z,5.47
2023-01-17T17:49:20.374Z,4.75
2023-01-17T17:51:47.905Z,5.20
2023-01-17T17:54:15.510Z,3.97
2023-01-17T17:56:46.439Z,5.07
2023-01-17T17:59:14.831Z,4.90
2023-01-17T18:01:41.721Z,5.40
2023-01-17T18:04:09.040Z,5.22
2023-01-17T18:06:36.267Z,6.43
2023-01-17T18:09:03.346Z,5.25
2023-01-17T18:11:30.568Z,5.55
2023-01-17T18:14:00.071Z,6.25
2023-01-17T18:16:32.663Z,5.05
2023-01-17T18:18:59.615Z,5.40
2023-01-17T18:21:29.350Z,6.03
2023-01-17T18:23:58.789Z,5.70
2023-01-17T18:26:30.879Z,5.18
2023-01-17T18:28:58.884Z,5.18
2023-01-17T18:31:27.395Z,5.18
2023-01-17T18:33:55.227Z,6.82
2023-01-17T18:36:25.848Z,5.45
2023-01-17T18:38:52.642Z,5.53
2023-01-17T18:41:25.770Z,5.15
2023-01-17T18:43:54.162Z,4.43
2023-01-17T18:46:21.115Z,4.32
2023-01-17T18:48:48.028Z,4.72
2023-01-17T18:51:17.063Z,5.70
2023-01-17T18:53:44.668Z,5.43
2023-01-17T18:56:16.802Z,4.28
2023-01-17T18:58:45.191Z,4.95
2023-01-17T19:01:17.271Z,4.90
2023-01-17T19:03:46.375Z,5.40
2023-01-17T19:06:17.140Z,6.05
2023-01-17T19:08:43.929Z,5.63
2023-01-17T19:11:11.198Z,4.63
2023-01-17T19:13:38.723Z,5.65
2023-01-17T19:16:07.850Z,5.57
2023-01-17T19:18:35.205Z,5.55
2023-01-17T19:21:12.889Z,5.03
2023-01-17T19:23:39.855Z,8.05
2023-01-17T19:26:08.316Z,5.78
2023-01-17T19:28:42.890Z,4.82
2023-01-17T19:31:13.121Z,5.32
2023-01-17T19:33:42.128Z,4.93
2023-01-17T19:36:11.817Z,5.63
2023-01-17T19:38:38.598Z,4.55
2023-01-17T19:41:10.153Z,4.22
2023-01-17T19:43:37.303Z,5.05
2023-01-17T19:46:04.359Z,4.40
2023-01-17T19:48:31.512Z,5.13
2023-01-17T19:51:07.039Z,4.90
2023-01-17T19:53:35.859Z,4.72
2023-01-17T19:56:14.501Z,5.03
2023-01-17T19:58:42.016Z,5.63
2023-01-17T20:01:11.281Z,6.72
2023-01-17T20:03:38.594Z,6.70
2023-01-17T20:06:06.384Z,7.00
2023-01-17T20:08:34.206Z,5.13
2023-01-17T20:11:15.983Z,5.25
2023-01-17T20:13:42.649Z,6.28
2023-01-17T20:16:11.756Z,9.13
2023-01-17T20:18:38.649Z,6.78
2023-01-17T20:21:07.459Z,6.78
2023-01-17T20:23:38.817Z,8.40
2023-01-17T20:26:06.093Z,8.02
2023-01-17T20:28:34.255Z,7.50
2023-01-17T20:31:05.856Z,6.60
2023-01-17T20:33:33.593Z,7.13
2023-01-17T20:36:10.411Z,7.03
2023-01-17T20:38:44.732Z,6.85
2023-01-17T20:41:13.829Z,7.20
2023-01-17T20:43:42.129Z,6.78
2023-01-17T20:46:09.816Z,7.88
2023-01-17T20:48:36.698Z,9.75
2023-01-17T20:51:10.375Z,8.68
2023-01-17T20:53:38.884Z,8.02
2023-01-17T20:56:05.968Z,6.47
2023-01-17T20:58:33.963Z,6.55
2023-01-17T21:01:01.309Z,5.60
2023-01-17T21:03:33.339Z,5.20
2023-01-17T21:06:05.132Z,5.97
2023-01-17T21:08:33.592Z,6.38
2023-01-17T21:11:00.753Z,5.78
2023-01-17T21:13:27.665Z,5.53
2023-01-17T21:15:54.420Z,4.75
2023-01-17T21:18:22.645Z,5.95
2023-01-17T21:20:49.490Z,5.82
2023-01-17T21:23:19.053Z,6.55
2023-01-17T21:25:57.802Z,7.78
2023-01-17T21:28:27.259Z,8.00
2023-01-17T21:30:54.380Z,7.07
2023-01-17T21:33:22.443Z,8.50
2023-01-17T21:35:49.142Z,8.25
2023-01-17T21:38:15.919Z,8.57
2023-01-17T21:40:43.348Z,9.40
2023-01-17T21:43:10.598Z,8.90
2023-01-17T21:45:38.409Z,8.82
2023-01-17T21:48:12.219Z,9.80
2023-01-17T21:50:39.208Z,9.75
2023-01-17T21:53:06.439Z,9.57
2023-01-17T21:55:51.701Z,9.52
2023-01-17T21:58:36.658Z,9.32
2023-01-17T22:01:18.012Z,10.18
2023-01-17T22:03:48.878Z,9.27
2023-01-17T22:06:15.645Z,8.20
2023-01-17T22:08:42.551Z,8.75
2023-01-17T22:11:11.978Z,8.60
2023-01-17T22:13:40.156Z,8.18
2023-01-17T22:16:10.257Z,9.75
2023-01-17T22:18:38.988Z,8.45
2023-01-17T22:21:14.553Z,9.18
2023-01-17T22:23:55.382Z,9.63
2023-01-17T22:26:24.374Z,7.88
2023-01-17T22:28:51.452Z,10.13
2023-01-17T22:31:23.338Z,9.32
2023-01-17T22:33:58.026Z,9.10
2023-01-17T22:36:25.126Z,8.02
2023-01-17T22:38:51.920Z,8.70
2023-01-17T22:41:21.555Z,8.40
2023-01-17T22:43:50.067Z,8.30
2023-01-17T22:46:20.367Z,8.13
2023-01-17T22:48:47.086Z,8.23
2023-01-17T22:51:15.722Z,7.65
2023-01-17T22:53:51.166Z,7.47
2023-01-17T22:56:23.923Z,7.93
2023-01-17T22:58:50.900Z,8.18
2023-01-17T23:01:25.743Z,8.77
2023-01-17T23:03:57.938Z,8.02
2023-01-17T23:06:30.306Z,7.35
2023-01-17T23:08:59.582Z,9.53
2023-01-17T23:11:44.964Z,8.30
2023-01-17T23:14:15.714Z,8.80
2023-01-17T23:17:07.308Z,8.70
2023-01-17T23:19:36.264Z,7.97
2023-01-17T23:24:54.105Z,8.90
2023-01-17T23:27:42.715Z,8.75
2023-01-17T23:30:15.167Z,9.27
2023-01-17T23:32:47.680Z,8.73
2023-01-17T23:35:15.550Z,9.07
2023-01-17T23:38:01.698Z,8.70
2023-01-17T23:40:30.231Z,9.63
2023-01-17T23:43:15.579Z,9.15
2023-01-17T23:45:42.430Z,9.23
2023-01-17T23:48:09.694Z,8.82
2023-01-17T23:50:38.227Z,8.35
2023-01-17T23:53:06.959Z,10.32
2023-01-17T23:55:38.834Z,10.63
2023-01-17T23:58:07.528Z,8.20
